National Weather Service Raw Text Product

Displaying AFOS PIL: TAFALO Received: 2017-11-15 05:55 UTC


944 
FTUS43 KDMX 150555 CCA
TAFALO
TAF COR
KALO 150555Z 1506/1606 18010KT 4SM -RA BR OVC004
     FM151000 23009KT 6SM BR VCSH SCT004 OVC010
     FM151200 30012KT P6SM BKN014
     FM151300 30013G19KT P6SM SCT018
     FM151800 31017G24KT P6SM BKN025=